Time;durP1;ratioP1;P1;durP2;ratioP2;P2;SDS_P1;SDS_P2;PMS_P1;PMS_P2;Temp;Humidity;BMP_temperature;BMP_pressure;BME280_temperature;BME280_humidity;BME280_pressure;Samples;Min_cycle;Max_cycle;Signal;HPM_P1;HPM_P2
2023/07/31 00:01:30;;;;;;;10.40;3.87;;;;;;;;;;5074810;28;20220;-83
2023/07/31 00:03:58;;;;;;;5.20;2.70;;;;;;;;;;5074927;28;20255;-82
2023/07/31 00:06:28;;;;;;;4.23;3.13;;;;;;;;;;5074290;28;20218;-85
2023/07/31 00:08:57;;;;;;;3.07;1.50;;;;;;;;;;5073903;28;20296;-86
2023/07/31 00:11:25;;;;;;;7.67;3.77;;;;;;;;;;5074283;28;20217;-86
2023/07/31 00:13:54;;;;;;;8.23;2.87;;;;;;;;;;5073879;28;20211;-86
2023/07/31 00:16:23;;;;;;;3.50;2.00;;;;;;;;;;5073957;28;20199;-86
2023/07/31 00:18:51;;;;;;;4.10;2.37;;;;;;;;;;5074078;28;20212;-86
2023/07/31 00:21:20;;;;;;;6.30;2.60;;;;;;;;;;5074364;28;20296;-86
2023/07/31 00:23:50;;;;;;;4.77;1.87;;;;;;;;;;5073864;28;20202;-85
2023/07/31 00:26:18;;;;;;;3.80;2.03;;;;;;;;;;5074176;28;20198;-85
2023/07/31 00:28:47;;;;;;;9.50;4.37;;;;;;;;;;5074387;28;20271;-85
2023/07/31 00:31:15;;;;;;;9.60;3.37;;;;;;;;;;5074006;28;20204;-85
2023/07/31 00:33:44;;;;;;;6.57;2.37;;;;;;;;;;5073243;28;20241;-86
2023/07/31 00:36:12;;;;;;;5.73;2.87;;;;;;;;;;5073600;28;20247;-85
2023/07/31 00:38:41;;;;;;;9.10;4.57;;;;;;;;;;5073660;28;20201;-85
2023/07/31 00:41:11;;;;;;;10.27;3.27;;;;;;;;;;5074255;28;20201;-85
2023/07/31 00:43:39;;;;;;;6.10;3.10;;;;;;;;;;5073611;28;20227;-84
2023/07/31 00:46:08;;;;;;;9.30;3.40;;;;;;;;;;5073552;28;20190;-85
2023/07/31 00:48:37;;;;;;;14.53;4.67;;;;;;;;;;5074273;28;20196;-86
2023/07/31 00:51:06;;;;;;;6.70;3.63;;;;;;;;;;5074321;28;20218;-87
2023/07/31 00:53:34;;;;;;;6.00;2.93;;;;;;;;;;5073674;28;20317;-87
2023/07/31 00:56:03;;;;;;;4.27;3.03;;;;;;;;;;5074034;28;20201;-87
2023/07/31 00:58:34;;;;;;;2.60;2.40;;;;;;;;;;5073966;28;20210;-88
2023/07/31 01:01:02;;;;;;;4.40;2.30;;;;;;;;;;5073519;28;20198;-87
2023/07/31 01:03:30;;;;;;;3.23;2.33;;;;;;;;;;5073402;28;20253;-86
2023/07/31 01:06:06;;;;;;;13.23;5.23;;;;;;;;;;5073303;28;20240;-87
2023/07/31 01:08:39;;;;;;;1.60;1.43;;;;;;;;;;5073228;28;20194;-87
2023/07/31 01:11:11;;;;;;;2.00;1.27;;;;;;;;;;5072937;28;20209;-86
2023/07/31 01:13:41;;;;;;;1.97;1.57;;;;;;;;;;5073387;28;20218;-87
2023/07/31 01:16:10;;;;;;;2.93;2.23;;;;;;;;;;5073635;28;20208;-87
2023/07/31 01:18:38;;;;;;;5.07;4.10;;;;;;;;;;5073269;28;20204;-87
2023/07/31 01:21:13;;;;;;;5.63;3.60;;;;;;;;;;5073083;28;20305;-87
2023/07/31 01:23:58;;;;;;;9.93;3.67;;;;;;;;;;5073101;28;20194;-87
2023/07/31 01:26:29;;;;;;;4.47;2.10;;;;;;;;;;5073049;28;20217;-86
2023/07/31 01:29:00;;;;;;;5.87;2.20;;;;;;;;;;5072489;28;20288;-86
2023/07/31 01:31:30;;;;;;;7.87;3.60;;;;;;;;;;5073175;28;20279;-87
2023/07/31 01:34:01;;;;;;;7.00;4.67;;;;;;;;;;5072928;28;20229;-86
2023/07/31 01:36:29;;;;;;;14.67;4.60;;;;;;;;;;5072268;28;20234;-87
2023/07/31 01:39:00;;;;;;;9.70;4.00;;;;;;;;;;5072870;28;20223;-86
2023/07/31 01:41:30;;;;;;;5.43;3.20;;;;;;;;;;5073015;28;20288;-86
2023/07/31 01:43:58;;;;;;;8.93;2.00;;;;;;;;;;5072756;28;20205;-86
2023/07/31 01:46:27;;;;;;;0.30;0.30;;;;;;;;;;5073283;28;20209;-85
2023/07/31 01:48:55;;;;;;;0.30;0.30;;;;;;;;;;5073029;28;20208;-86
2023/07/31 01:51:24;;;;;;;0.30;0.30;;;;;;;;;;5072574;28;20218;-85
2023/07/31 01:53:53;;;;;;;0.30;0.30;;;;;;;;;;5072683;28;20228;-86
2023/07/31 01:56:21;;;;;;;0.30;0.30;;;;;;;;;;5072256;28;20190;-86
2023/07/31 01:58:51;;;;;;;0.30;0.30;;;;;;;;;;5072930;28;20277;-87
2023/07/31 02:01:23;;;;;;;0.30;0.30;;;;;;;;;;5072856;28;20185;-87
2023/07/31 02:03:52;;;;;;;0.30;0.30;;;;;;;;;;5072215;28;20255;-88
2023/07/31 02:06:22;;;;;;;0.33;0.33;;;;;;;;;;5073322;28;20225;-88
2023/07/31 02:08:51;;;;;;;0.30;0.30;;;;;;;;;;5072832;28;20289;-87
2023/07/31 02:11:20;;;;;;;0.30;0.30;;;;;;;;;;5073039;28;20201;-87
2023/07/31 02:13:48;;;;;;;0.30;0.30;;;;;;;;;;5072385;28;20232;-87
2023/07/31 02:16:18;;;;;;;0.30;0.30;;;;;;;;;;5072794;28;20198;-86
2023/07/31 02:18:47;;;;;;;0.30;0.30;;;;;;;;;;5072317;28;20189;-87
2023/07/31 02:21:15;;;;;;;0.30;0.30;;;;;;;;;;5072350;28;20217;-87
2023/07/31 02:23:44;;;;;;;0.30;0.30;;;;;;;;;;5072814;28;20304;-87
2023/07/31 02:26:12;;;;;;;0.30;0.30;;;;;;;;;;5072834;28;20212;-88
2023/07/31 02:28:42;;;;;;;0.30;0.30;;;;;;;;;;5072308;28;20204;-88
2023/07/31 02:31:11;;;;;;;0.30;0.30;;;;;;;;;;5072708;28;20205;-88
2023/07/31 02:33:41;;;;;;;0.30;0.30;;;;;;;;;;5072495;28;20212;-88
2023/07/31 02:36:09;;;;;;;0.30;0.30;;;;;;;;;;5072458;28;20234;-88
2023/07/31 02:38:38;;;;;;;0.30;0.30;;;;;;;;;;5072585;28;20198;-88
2023/07/31 02:41:06;;;;;;;0.30;0.30;;;;;;;;;;5072508;28;20205;-88
2023/07/31 02:43:35;;;;;;;0.30;0.30;;;;;;;;;;5072792;28;20209;-87
2023/07/31 02:46:03;;;;;;;0.30;0.30;;;;;;;;;;5072961;28;20207;-88
2023/07/31 02:48:32;;;;;;;0.23;0.23;;;;;;;;;;5072746;28;20292;-87
2023/07/31 02:51:02;;;;;;;0.20;0.20;;;;;;;;;;5072808;28;20213;-89
2023/07/31 02:53:31;;;;;;;0.50;0.50;;;;;;;;;;5072331;28;20202;-89
2023/07/31 02:55:59;;;;;;;0.30;0.30;;;;;;;;;;5071464;28;20230;-88
2023/07/31 02:58:28;;;;;;;0.30;0.30;;;;;;;;;;5072827;28;20194;-88
2023/07/31 03:00:56;;;;;;;0.30;0.30;;;;;;;;;;5072807;28;20209;-88
2023/07/31 03:03:25;;;;;;;0.30;0.30;;;;;;;;;;5072327;28;20202;-88
2023/07/31 03:05:53;;;;;;;0.37;0.37;;;;;;;;;;5072313;28;20213;-88
2023/07/31 03:08:23;;;;;;;0.30;0.30;;;;;;;;;;5072321;28;20221;-88
2023/07/31 03:10:52;;;;;;;0.30;0.30;;;;;;;;;;5072560;28;20201;-87
2023/07/31 03:13:20;;;;;;;0.30;0.30;;;;;;;;;;5072101;28;20257;-87
2023/07/31 03:15:49;;;;;;;0.30;0.30;;;;;;;;;;5071081;28;20209;-87
2023/07/31 03:18:17;;;;;;;0.20;0.20;;;;;;;;;;5071326;28;20208;-86
2023/07/31 03:20:46;;;;;;;0.30;0.30;;;;;;;;;;5071867;28;20214;-88
2023/07/31 03:23:14;;;;;;;2.30;2.23;;;;;;;;;;5071695;28;20220;-88
2023/07/31 03:25:57;;;;;;;0.20;0.20;;;;;;;;;;5071795;28;20182;-87
2023/07/31 03:28:25;;;;;;;0.30;0.30;;;;;;;;;;5071061;28;20190;-86
2023/07/31 03:30:54;;;;;;;0.30;0.30;;;;;;;;;;5071109;28;20209;-86
2023/07/31 03:33:22;;;;;;;0.30;0.30;;;;;;;;;;5070964;28;20190;-86
2023/07/31 03:35:51;;;;;;;0.30;0.30;;;;;;;;;;5070724;28;20240;-86
2023/07/31 03:38:19;;;;;;;0.40;0.40;;;;;;;;;;5071520;28;20205;-86
2023/07/31 03:40:49;;;;;;;0.30;0.30;;;;;;;;;;5070823;28;20205;-86
2023/07/31 03:43:18;;;;;;;0.30;0.30;;;;;;;;;;5071002;28;20201;-85
2023/07/31 03:45:46;;;;;;;0.60;0.60;;;;;;;;;;5071155;28;20208;-86
2023/07/31 03:48:16;;;;;;;0.30;0.30;;;;;;;;;;5070987;28;20259;-86
2023/07/31 03:50:44;;;;;;;0.30;0.30;;;;;;;;;;5071106;28;20197;-86
2023/07/31 03:53:13;;;;;;;0.30;0.30;;;;;;;;;;5071594;28;20207;-86
2023/07/31 03:55:41;;;;;;;0.30;0.30;;;;;;;;;;5070994;28;20258;-87
2023/07/31 03:58:11;;;;;;;0.30;0.30;;;;;;;;;;5070706;28;20197;-86
2023/07/31 04:00:41;;;;;;;0.30;0.30;;;;;;;;;;5070974;28;20205;-87
2023/07/31 04:03:10;;;;;;;0.30;0.30;;;;;;;;;;5071559;28;20301;-85
2023/07/31 04:05:40;;;;;;;0.30;0.30;;;;;;;;;;5072443;28;20223;-86
2023/07/31 04:08:09;;;;;;;0.30;0.30;;;;;;;;;;5074136;28;20215;-87
2023/07/31 04:10:37;;;;;;;0.30;0.30;;;;;;;;;;5075474;28;20297;-87
2023/07/31 04:13:06;;;;;;;0.30;0.30;;;;;;;;;;5074802;28;20407;-86
2023/07/31 04:15:36;;;;;;;0.30;0.30;;;;;;;;;;5074214;28;20217;-87
2023/07/31 04:18:06;;;;;;;0.30;0.30;;;;;;;;;;5074598;28;20201;-86
2023/07/31 04:20:34;;;;;;;0.30;0.30;;;;;;;;;;5074554;28;20198;-86
2023/07/31 04:23:03;;;;;;;0.30;0.30;;;;;;;;;;5074477;28;20202;-87
2023/07/31 04:25:31;;;;;;;0.30;0.30;;;;;;;;;;5073463;28;20193;-86
2023/07/31 04:28:00;;;;;;;0.30;0.30;;;;;;;;;;5074796;28;20198;-87
2023/07/31 04:30:28;;;;;;;0.30;0.30;;;;;;;;;;5074354;28;20202;-86
2023/07/31 04:32:58;;;;;;;0.30;0.30;;;;;;;;;;5074522;28;20282;-86
2023/07/31 04:35:26;;;;;;;0.30;0.30;;;;;;;;;;5074225;28;20214;-86
2023/07/31 04:37:55;;;;;;;0.30;0.30;;;;;;;;;;5074035;28;20202;-85
2023/07/31 04:40:24;;;;;;;0.30;0.30;;;;;;;;;;5074374;28;20257;-86
2023/07/31 04:42:52;;;;;;;0.30;0.30;;;;;;;;;;5073388;28;20203;-86
2023/07/31 04:45:21;;;;;;;0.20;0.20;;;;;;;;;;5073948;28;20226;-86
2023/07/31 04:47:49;;;;;;;0.40;0.40;;;;;;;;;;5074188;28;20269;-85
2023/07/31 04:50:19;;;;;;;0.30;0.30;;;;;;;;;;5073900;28;20212;-86
2023/07/31 04:52:48;;;;;;;0.30;0.30;;;;;;;;;;5073508;28;20212;-86
2023/07/31 04:55:16;;;;;;;0.20;0.20;;;;;;;;;;5073665;28;20225;-86
2023/07/31 04:57:45;;;;;;;0.30;0.30;;;;;;;;;;5074116;28;20225;-86
2023/07/31 05:00:13;;;;;;;0.30;0.30;;;;;;;;;;5072814;28;20201;-86
2023/07/31 05:02:42;;;;;;;0.30;0.30;;;;;;;;;;5073411;28;20201;-85
2023/07/31 05:05:10;;;;;;;0.20;0.20;;;;;;;;;;5073411;28;20208;-86
2023/07/31 05:07:40;;;;;;;0.30;0.30;;;;;;;;;;5073335;28;20210;-86
2023/07/31 05:10:09;;;;;;;0.30;0.30;;;;;;;;;;5073500;28;20292;-87
2023/07/31 05:12:38;;;;;;;0.30;0.30;;;;;;;;;;5073702;28;20202;-87
2023/07/31 05:15:07;;;;;;;0.20;0.20;;;;;;;;;;5073188;28;20198;-87
2023/07/31 05:17:35;;;;;;;0.30;0.30;;;;;;;;;;5073011;28;20236;-87
2023/07/31 05:20:04;;;;;;;0.30;0.30;;;;;;;;;;5072933;28;20215;-86
2023/07/31 05:22:32;;;;;;;0.30;0.30;;;;;;;;;;5073090;28;20203;-86
2023/07/31 05:25:02;;;;;;;0.30;0.30;;;;;;;;;;5073229;28;20205;-87
2023/07/31 05:27:31;;;;;;;0.30;0.30;;;;;;;;;;5072692;28;20195;-86
2023/07/31 05:30:00;;;;;;;0.30;0.30;;;;;;;;;;5072971;28;20241;-87
2023/07/31 05:32:28;;;;;;;0.30;0.30;;;;;;;;;;5073402;28;20211;-87
2023/07/31 05:34:57;;;;;;;0.30;0.30;;;;;;;;;;5072788;28;20200;-86
2023/07/31 05:37:25;;;;;;;0.30;0.30;;;;;;;;;;5072481;28;20248;-87
2023/07/31 05:39:54;;;;;;;0.30;0.30;;;;;;;;;;5072998;28;20272;-87
2023/07/31 05:42:24;;;;;;;0.30;0.30;;;;;;;;;;5072978;28;20212;-87
2023/07/31 05:44:53;;;;;;;0.30;0.30;;;;;;;;;;5072233;28;20217;-87
2023/07/31 05:47:21;;;;;;;0.20;0.20;;;;;;;;;;5072899;28;20217;-87
2023/07/31 05:49:52;;;;;;;0.20;0.20;;;;;;;;;;5073863;28;20206;-89
2023/07/31 05:52:20;;;;;;;0.20;0.20;;;;;;;;;;5073137;28;20208;-88
2023/07/31 05:54:50;;;;;;;0.20;0.20;;;;;;;;;;5073156;28;20202;-89
2023/07/31 05:57:18;;;;;;;0.30;0.30;;;;;;;;;;5072959;28;20308;-89
2023/07/31 05:59:48;;;;;;;0.30;0.30;;;;;;;;;;5073531;28;20213;-89
2023/07/31 06:02:17;;;;;;;0.20;0.20;;;;;;;;;;5072392;28;20196;-89
2023/07/31 06:04:46;;;;;;;0.20;0.20;;;;;;;;;;5072898;28;20285;-88
2023/07/31 06:07:14;;;;;;;0.30;0.30;;;;;;;;;;5072610;28;20209;-88
2023/07/31 06:09:43;;;;;;;0.30;0.30;;;;;;;;;;5072731;28;20224;-88
2023/07/31 06:12:12;;;;;;;0.30;0.30;;;;;;;;;;5072047;28;20272;-88
2023/07/31 06:14:41;;;;;;;0.30;0.30;;;;;;;;;;5073088;28;20294;-90
2023/07/31 06:17:11;;;;;;;0.30;0.30;;;;;;;;;;5072979;28;20240;-85
2023/07/31 06:19:41;;;;;;;0.30;0.30;;;;;;;;;;5072390;28;20202;-88
2023/07/31 06:22:09;;;;;;;0.20;0.20;;;;;;;;;;5074147;28;20205;-85
2023/07/31 06:24:38;;;;;;;0.30;0.30;;;;;;;;;;5071608;28;20198;-85
2023/07/31 06:27:08;;;;;;;0.30;0.30;;;;;;;;;;5072112;28;20190;-86
2023/07/31 06:29:37;;;;;;;0.30;0.30;;;;;;;;;;5071197;28;20198;-85
2023/07/31 06:32:05;;;;;;;0.30;0.30;;;;;;;;;;5071890;28;20198;-85
2023/07/31 06:34:36;;;;;;;0.30;0.30;;;;;;;;;;5072009;28;20285;-87
2023/07/31 06:37:05;;;;;;;0.30;0.30;;;;;;;;;;5071335;28;20269;-85
2023/07/31 06:39:34;;;;;;;0.20;0.20;;;;;;;;;;5072042;28;20221;-85
2023/07/31 06:42:03;;;;;;;0.30;0.30;;;;;;;;;;5071724;28;20325;-85
2023/07/31 06:44:32;;;;;;;0.30;0.30;;;;;;;;;;5075004;28;20351;-90
2023/07/31 06:47:01;;;;;;;0.30;0.30;;;;;;;;;;5075648;28;20195;-90
2023/07/31 06:49:30;;;;;;;0.20;0.20;;;;;;;;;;5075205;28;20198;-90
2023/07/31 06:52:00;;;;;;;0.23;0.23;;;;;;;;;;5074273;28;20202;-90
2023/07/31 06:54:29;;;;;;;0.30;0.30;;;;;;;;;;5073846;28;20242;-90
2023/07/31 06:56:58;;;;;;;0.20;0.20;;;;;;;;;;5074548;28;20221;-90
2023/07/31 06:59:26;;;;;;;0.30;0.30;;;;;;;;;;5075628;28;20233;-89
2023/07/31 07:01:55;;;;;;;0.20;0.20;;;;;;;;;;5073686;28;20209;-89
2023/07/31 07:04:26;;;;;;;0.20;0.20;;;;;;;;;;5073517;28;20206;-90
2023/07/31 07:06:55;;;;;;;0.20;0.20;;;;;;;;;;5074009;28;20216;-89
2023/07/31 07:09:25;;;;;;;0.20;0.20;;;;;;;;;;5073519;28;20265;-90
2023/07/31 07:11:54;;;;;;;0.20;0.20;;;;;;;;;;5074651;28;20311;-89
2023/07/31 07:14:22;;;;;;;0.30;0.30;;;;;;;;;;5073027;28;20187;-90
2023/07/31 07:16:59;;;;;;;0.27;0.27;;;;;;;;;;5074404;28;20225;-89
2023/07/31 07:19:27;;;;;;;0.43;0.43;;;;;;;;;;5074404;28;20213;-86
2023/07/31 07:21:56;;;;;;;0.30;0.30;;;;;;;;;;5071228;28;20288;-85
2023/07/31 07:24:26;;;;;;;0.20;0.20;;;;;;;;;;5071425;28;20216;-85
2023/07/31 07:26:56;;;;;;;0.20;0.20;;;;;;;;;;5071288;28;20190;-86
2023/07/31 07:29:25;;;;;;;0.30;0.30;;;;;;;;;;5070583;28;20258;-86
2023/07/31 07:31:54;;;;;;;0.20;0.20;;;;;;;;;;5070845;28;20222;-86
2023/07/31 07:34:24;;;;;;;0.20;0.20;;;;;;;;;;5071776;28;20263;-85
2023/07/31 07:36:53;;;;;;;0.30;0.30;;;;;;;;;;5070774;28;20324;-85
2023/07/31 07:39:26;;;;;;;0.20;0.20;;;;;;;;;;5070602;28;20209;-86
2023/07/31 07:41:55;;;;;;;0.30;0.30;;;;;;;;;;5072902;28;20201;-85
2023/07/31 07:44:24;;;;;;;0.20;0.20;;;;;;;;;;5074981;28;20301;-86
2023/07/31 07:46:53;;;;;;;0.20;0.20;;;;;;;;;;5074800;28;20198;-86
2023/07/31 07:49:23;;;;;;;0.30;0.30;;;;;;;;;;5074951;28;20202;-85
2023/07/31 07:51:51;;;;;;;0.30;0.30;;;;;;;;;;5074829;28;20202;-86
2023/07/31 07:54:20;;;;;;;0.20;0.20;;;;;;;;;;5074873;28;20198;-85
2023/07/31 07:56:51;;;;;;;0.30;0.30;;;;;;;;;;5073921;28;20198;-86
2023/07/31 07:59:19;;;;;;;0.20;0.20;;;;;;;;;;5074786;28;20205;-86
2023/07/31 08:01:48;;;;;;;0.30;0.30;;;;;;;;;;5075172;28;20198;-86
2023/07/31 08:04:17;;;;;;;7.73;3.37;;;;;;;;;;5074319;28;20297;-85
2023/07/31 08:06:45;;;;;;;9.77;3.03;;;;;;;;;;5075051;28;20225;-91
2023/07/31 08:09:14;;;;;;;7.23;3.63;;;;;;;;;;5077417;28;20206;-91
2023/07/31 08:11:43;;;;;;;7.80;1.90;;;;;;;;;;5077392;28;20208;-90
2023/07/31 08:14:13;;;;;;;7.80;4.77;;;;;;;;;;5076296;28;20266;-90
2023/07/31 08:16:42;;;;;;;12.07;4.43;;;;;;;;;;5076803;28;20205;-91
2023/07/31 08:19:11;;;;;;;10.90;3.10;;;;;;;;;;5075527;28;20245;-86
2023/07/31 08:21:43;;;;;;;8.13;3.67;;;;;;;;;;5074281;28;20202;-86
2023/07/31 08:24:12;;;;;;;11.63;3.20;;;;;;;;;;5074050;28;20201;-85
2023/07/31 08:26:40;;;;;;;12.43;4.83;;;;;;;;;;5074367;28;20206;-86
2023/07/31 08:29:11;;;;;;;8.70;3.13;;;;;;;;;;5076299;28;20318;-89
2023/07/31 08:31:41;;;;;;;1.60;1.47;;;;;;;;;;5076027;28;20255;-89
2023/07/31 08:34:10;;;;;;;12.93;4.80;;;;;;;;;;5075345;28;20202;-89
2023/07/31 08:36:43;;;;;;;15.97;3.80;;;;;;;;;;5074943;28;20229;-89
2023/07/31 08:39:12;;;;;;;7.80;3.87;;;;;;;;;;5074049;28;20223;-89
2023/07/31 08:41:41;;;;;;;4.50;2.07;;;;;;;;;;5074185;28;20201;-89
2023/07/31 08:44:10;;;;;;;5.00;2.67;;;;;;;;;;5074401;28;20218;-86
2023/07/31 08:46:39;;;;;;;4.90;1.77;;;;;;;;;;5074554;28;20249;-90
2023/07/31 08:49:11;;;;;;;10.57;3.77;;;;;;;;;;5074813;28;20197;-89
2023/07/31 08:51:40;;;;;;;7.47;3.43;;;;;;;;;;5074467;28;20204;-89
2023/07/31 08:54:09;;;;;;;4.67;2.07;;;;;;;;;;5073908;28;20203;-90
2023/07/31 08:56:38;;;;;;;10.07;3.83;;;;;;;;;;5074472;28;20193;-90
2023/07/31 08:59:08;;;;;;;11.13;3.97;;;;;;;;;;5074177;28;20278;-89
2023/07/31 09:01:40;;;;;;;6.97;3.57;;;;;;;;;;5074746;28;20252;-88
2023/07/31 09:04:11;;;;;;;8.50;2.50;;;;;;;;;;5074097;28;20261;-89
2023/07/31 09:06:40;;;;;;;10.23;3.60;;;;;;;;;;5074393;28;20222;-88
2023/07/31 09:09:10;;;;;;;3.20;1.70;;;;;;;;;;5074120;28;20205;-89
2023/07/31 09:11:38;;;;;;;10.63;3.37;;;;;;;;;;5074538;28;20202;-89
2023/07/31 09:14:08;;;;;;;16.80;3.83;;;;;;;;;;5073509;28;20267;-89
2023/07/31 09:16:53;;;;;;;3.93;2.67;;;;;;;;;;5073657;28;20193;-89
2023/07/31 09:19:31;;;;;;;7.37;2.90;;;;;;;;;;5073966;28;20281;-89
2023/07/31 09:21:59;;;;;;;2.87;2.20;;;;;;;;;;5074302;28;20205;-89
2023/07/31 09:24:29;;;;;;;9.03;2.57;;;;;;;;;;5073945;28;20236;-89
2023/07/31 09:26:59;;;;;;;8.03;3.70;;;;;;;;;;5074176;28;20255;-88
2023/07/31 09:29:29;;;;;;;3.83;2.33;;;;;;;;;;5073881;28;20189;-88
2023/07/31 09:31:58;;;;;;;3.10;1.20;;;;;;;;;;5073659;28;20210;-88
2023/07/31 09:34:38;;;;;;;9.87;2.63;;;;;;;;;;5073243;28;20202;-86
2023/07/31 09:37:07;;;;;;;6.60;3.60;;;;;;;;;;5073884;28;20256;-88
2023/07/31 09:39:46;;;;;;;6.80;2.43;;;;;;;;;;5073201;28;20222;-88
2023/07/31 09:42:29;;;;;;;10.27;3.40;;;;;;;;;;5073608;28;20309;-88
2023/07/31 09:45:08;;;;;;;3.33;2.03;;;;;;;;;;5073128;28;20194;-89
2023/07/31 09:47:36;;;;;;;14.27;7.33;;;;;;;;;;5073843;28;20197;-88
2023/07/31 09:50:10;;;;;;;7.43;2.87;;;;;;;;;;5073555;28;20275;-88
2023/07/31 09:52:40;;;;;;;11.07;2.43;;;;;;;;;;5072952;28;20194;-88
2023/07/31 09:55:10;;;;;;;3.10;1.57;;;;;;;;;;5073611;28;20195;-89
2023/07/31 09:57:40;;;;;;;8.83;3.17;;;;;;;;;;5073390;28;20217;-91
2023/07/31 10:00:11;;;;;;;6.77;2.60;;;;;;;;;;5073996;28;20201;-90
2023/07/31 10:02:46;;;;;;;7.87;2.50;;;;;;;;;;5073811;28;20258;-90
2023/07/31 10:05:19;;;;;;;6.53;2.57;;;;;;;;;;5073136;28;20186;-89
2023/07/31 10:07:52;;;;;;;3.93;1.83;;;;;;;;;;5073809;28;20207;-89
2023/07/31 10:10:22;;;;;;;4.23;2.60;;;;;;;;;;5072836;28;20256;-89
2023/07/31 10:12:53;;;;;;;6.70;2.13;;;;;;;;;;5073731;28;20198;-88
2023/07/31 10:15:24;;;;;;;16.33;4.60;;;;;;;;;;5072767;28;20194;-88
2023/07/31 10:17:53;;;;;;;6.40;2.20;;;;;;;;;;5072574;28;20198;-88
2023/07/31 10:20:27;;;;;;;4.73;2.40;;;;;;;;;;5072810;28;20202;-88
2023/07/31 10:22:56;;;;;;;5.07;1.73;;;;;;;;;;5072645;28;20205;-90
2023/07/31 10:25:27;;;;;;;9.17;3.43;;;;;;;;;;5073101;28;20243;-90
2023/07/31 10:27:56;;;;;;;7.27;2.03;;;;;;;;;;5072793;28;20195;-88
2023/07/31 10:30:27;;;;;;;6.23;2.53;;;;;;;;;;5072498;28;20207;-88
2023/07/31 10:32:56;;;;;;;2.97;1.23;;;;;;;;;;5073420;28;20197;-88
2023/07/31 10:35:29;;;;;;;7.20;2.30;;;;;;;;;;5054127;28;20209;-87
2023/07/31 10:38:11;;;;;;;3.63;1.83;;;;;;;;;;5072011;28;20235;-90
2023/07/31 10:40:42;;;;;;;6.50;2.57;;;;;;;;;;5072618;28;20208;-89
2023/07/31 10:43:26;;;;;;;8.07;2.60;;;;;;;;;;5072051;28;20203;-90
2023/07/31 10:45:55;;;;;;;6.80;3.03;;;;;;;;;;5071688;28;20202;-90
2023/07/31 10:48:24;;;;;;;11.17;2.53;;;;;;;;;;5072757;28;20201;-90
2023/07/31 10:50:57;;;;;;;3.20;1.70;;;;;;;;;;5072503;28;20225;-91
2023/07/31 10:53:26;;;;;;;2.90;1.20;;;;;;;;;;5072177;28;20201;-90
2023/07/31 10:55:59;;;;;;;5.63;1.60;;;;;;;;;;5072620;28;20210;-90
2023/07/31 10:58:28;;;;;;;6.03;3.00;;;;;;;;;;5072614;28;20200;-90
2023/07/31 11:00:58;;;;;;;9.67;3.27;;;;;;;;;;5072506;28;20206;-90
2023/07/31 11:03:27;;;;;;;5.13;2.70;;;;;;;;;;5072849;28;20211;-90
2023/07/31 11:06:03;;;;;;;7.83;4.03;;;;;;;;;;5072616;28;20275;-90
2023/07/31 11:08:33;;;;;;;2.80;1.40;;;;;;;;;;5072966;28;20253;-90
2023/07/31 11:11:08;;;;;;;4.53;2.03;;;;;;;;;;5072637;28;20213;-90
2023/07/31 11:13:44;;;;;;;7.60;2.67;;;;;;;;;;5072685;28;20243;-90
2023/07/31 11:16:13;;;;;;;3.73;1.60;;;;;;;;;;5073407;28;20207;-90
2023/07/31 11:18:43;;;;;;;3.67;2.60;;;;;;;;;;5076757;28;20234;-90
2023/07/31 11:21:15;;;;;;;12.13;2.00;;;;;;;;;;5076352;28;20229;-91
2023/07/31 11:23:47;;;;;;;3.03;1.50;;;;;;;;;;5076439;28;20191;-90
2023/07/31 11:26:16;;;;;;;7.20;2.40;;;;;;;;;;5075776;28;20206;-89
2023/07/31 11:28:45;;;;;;;6.57;3.17;;;;;;;;;;5076444;28;20227;-89
2023/07/31 11:31:14;;;;;;;5.67;2.37;;;;;;;;;;5075589;28;20303;-89
2023/07/31 11:33:44;;;;;;;8.80;2.23;;;;;;;;;;5076038;28;20202;-88
2023/07/31 11:36:17;;;;;;;6.07;2.00;;;;;;;;;;5075408;28;20202;-88
2023/07/31 11:38:46;;;;;;;12.07;2.27;;;;;;;;;;5075656;28;20196;-88
2023/07/31 11:41:17;;;;;;;9.23;2.80;;;;;;;;;;5075629;28;20251;-88
2023/07/31 11:43:47;;;;;;;9.50;2.87;;;;;;;;;;5076080;28;20203;-88
2023/07/31 11:46:16;;;;;;;2.40;1.50;;;;;;;;;;5074713;28;20198;-88
2023/07/31 11:48:45;;;;;;;10.33;2.97;;;;;;;;;;5076209;28;20201;-83
2023/07/31 11:51:15;;;;;;;5.80;2.33;;;;;;;;;;5074481;28;20193;-89
2023/07/31 11:53:46;;;;;;;2.73;1.63;;;;;;;;;;5075002;28;20204;-83
2023/07/31 11:56:15;;;;;;;5.07;1.67;;;;;;;;;;5073986;28;20221;-83
2023/07/31 11:58:45;;;;;;;7.90;1.90;;;;;;;;;;5074647;28;20201;-83
2023/07/31 12:01:13;;;;;;;5.70;1.77;;;;;;;;;;5074772;28;20195;-84
2023/07/31 12:03:48;;;;;;;2.77;1.93;;;;;;;;;;5074260;28;20228;-84
2023/07/31 12:06:16;;;;;;;6.33;1.67;;;;;;;;;;5074541;28;20221;-84
2023/07/31 12:08:46;;;;;;;6.93;2.30;;;;;;;;;;5074847;28;20220;-84
2023/07/31 12:11:18;;;;;;;5.23;1.63;;;;;;;;;;5074581;28;20299;-84
2023/07/31 12:13:50;;;;;;;8.67;2.07;;;;;;;;;;5074335;28;20199;-84
2023/07/31 12:16:18;;;;;;;4.77;1.43;;;;;;;;;;5074514;28;20194;-84
2023/07/31 12:18:46;;;;;;;4.43;1.20;;;;;;;;;;5074517;28;20209;-83
2023/07/31 12:21:15;;;;;;;2.40;1.20;;;;;;;;;;5073975;28;20284;-84
2023/07/31 12:23:48;;;;;;;2.17;1.57;;;;;;;;;;5073804;28;20205;-84
2023/07/31 12:26:19;;;;;;;4.27;1.90;;;;;;;;;;5073811;28;20199;-84
2023/07/31 12:28:49;;;;;;;3.33;1.50;;;;;;;;;;5073159;28;20206;-83
2023/07/31 12:31:18;;;;;;;5.60;2.13;;;;;;;;;;5073808;28;20230;-84
2023/07/31 12:33:49;;;;;;;3.23;1.63;;;;;;;;;;5074791;28;20204;-84
2023/07/31 12:36:18;;;;;;;4.93;2.17;;;;;;;;;;5073690;28;20272;-84
2023/07/31 12:38:48;;;;;;;4.90;2.13;;;;;;;;;;5073072;28;20244;-83
2023/07/31 12:41:17;;;;;;;8.07;2.47;;;;;;;;;;5073673;28;20222;-83
2023/07/31 12:43:46;;;;;;;4.20;1.57;;;;;;;;;;5073958;28;20202;-83
2023/07/31 12:46:19;;;;;;;3.33;1.67;;;;;;;;;;5072211;28;20292;-82
2023/07/31 12:48:48;;;;;;;5.50;3.23;;;;;;;;;;5073628;28;20285;-83
2023/07/31 12:51:16;;;;;;;4.23;1.93;;;;;;;;;;5074127;28;20221;-82
2023/07/31 12:53:46;;;;;;;6.87;3.70;;;;;;;;;;5073865;28;20195;-82
2023/07/31 12:56:19;;;;;;;3.90;1.73;;;;;;;;;;5073219;28;20191;-82
2023/07/31 12:58:48;;;;;;;5.73;1.83;;;;;;;;;;5073297;28;20186;-82
2023/07/31 13:01:16;;;;;;;5.47;2.97;;;;;;;;;;5073441;28;20317;-82
2023/07/31 13:03:45;;;;;;;7.73;2.50;;;;;;;;;;5073410;28;20195;-82
2023/07/31 13:06:14;;;;;;;5.60;1.73;;;;;;;;;;5072318;28;20391;-82
2023/07/31 13:08:45;;;;;;;4.40;1.50;;;;;;;;;;5073309;28;20211;-82
2023/07/31 13:11:13;;;;;;;7.47;2.20;;;;;;;;;;5073742;28;20201;-82
2023/07/31 13:13:43;;;;;;;6.33;1.60;;;;;;;;;;5073453;28;20212;-82
2023/07/31 13:16:12;;;;;;;6.77;2.80;;;;;;;;;;5072802;28;20206;-82
2023/07/31 13:18:42;;;;;;;5.20;1.77;;;;;;;;;;5073624;28;20303;-82
2023/07/31 13:21:10;;;;;;;4.40;1.70;;;;;;;;;;5073386;28;20221;-83
2023/07/31 13:23:39;;;;;;;4.90;1.70;;;;;;;;;;5072828;28;20256;-82
2023/07/31 13:26:08;;;;;;;1.67;0.93;;;;;;;;;;5073166;28;20208;-82
2023/07/31 13:28:36;;;;;;;4.30;2.10;;;;;;;;;;5073238;28;20237;-81
2023/07/31 13:31:06;;;;;;;2.57;1.37;;;;;;;;;;5073017;28;20250;-82
2023/07/31 13:33:37;;;;;;;7.30;1.87;;;;;;;;;;5073057;28;20203;-82
2023/07/31 13:36:09;;;;;;;1.43;0.83;;;;;;;;;;5073169;28;20234;-82
2023/07/31 13:38:38;;;;;;;3.23;1.63;;;;;;;;;;5072555;28;20227;-82
2023/07/31 13:41:07;;;;;;;0.60;0.53;;;;;;;;;;5072306;28;20227;-82
2023/07/31 13:43:36;;;;;;;3.93;1.13;;;;;;;;;;5072772;28;20196;-81
2023/07/31 13:46:06;;;;;;;2.33;1.17;;;;;;;;;;5072835;28;20287;-82
2023/07/31 13:48:37;;;;;;;2.87;0.80;;;;;;;;;;5072758;28;20245;-82
2023/07/31 13:51:05;;;;;;;1.33;1.23;;;;;;;;;;5072436;28;20194;-82
2023/07/31 13:53:34;;;;;;;1.77;1.00;;;;;;;;;;5072501;28;20205;-82
2023/07/31 13:56:03;;;;;;;4.90;1.20;;;;;;;;;;5072104;28;20198;-82
2023/07/31 13:58:34;;;;;;;2.00;1.67;;;;;;;;;;5072617;28;20203;-82
2023/07/31 14:01:04;;;;;;;1.87;1.77;;;;;;;;;;5072336;28;20207;-82
2023/07/31 14:03:33;;;;;;;0.50;0.50;;;;;;;;;;5072449;28;20245;-82
2023/07/31 14:06:03;;;;;;;5.33;1.50;;;;;;;;;;5071629;28;20273;-82
2023/07/31 14:08:32;;;;;;;2.77;1.37;;;;;;;;;;5071651;28;20186;-82
2023/07/31 14:11:00;;;;;;;1.60;1.00;;;;;;;;;;5071957;28;20300;-83
2023/07/31 14:13:29;;;;;;;2.13;1.63;;;;;;;;;;5072370;28;20205;-82
2023/07/31 14:15:58;;;;;;;6.33;2.67;;;;;;;;;;5071916;28;20300;-82
2023/07/31 14:18:26;;;;;;;4.90;2.17;;;;;;;;;;5071630;28;20190;-82
2023/07/31 14:20:56;;;;;;;6.43;2.50;;;;;;;;;;5072277;28;20228;-88
2023/07/31 14:23:26;;;;;;;7.37;3.57;;;;;;;;;;5074111;28;20192;-89
2023/07/31 14:25:54;;;;;;;9.73;3.37;;;;;;;;;;5071352;28;20238;-82
2023/07/31 14:28:23;;;;;;;3.40;1.53;;;;;;;;;;5072057;28;20194;-82
2023/07/31 14:30:51;;;;;;;4.60;3.03;;;;;;;;;;5071778;28;20199;-81
2023/07/31 14:33:20;;;;;;;5.77;2.03;;;;;;;;;;5071589;28;20229;-82
2023/07/31 14:35:49;;;;;;;6.97;1.87;;;;;;;;;;5071449;28;20203;-82
2023/07/31 14:38:17;;;;;;;2.80;1.27;;;;;;;;;;5071638;28;20238;-82
2023/07/31 14:40:47;;;;;;;2.07;1.33;;;;;;;;;;5071889;28;20215;-82
2023/07/31 14:43:16;;;;;;;3.43;1.90;;;;;;;;;;5071560;28;20195;-82
2023/07/31 14:45:46;;;;;;;3.70;1.43;;;;;;;;;;5071580;28;20199;-82
2023/07/31 14:48:15;;;;;;;20.73;1.93;;;;;;;;;;5071491;28;20188;-82
2023/07/31 14:50:43;;;;;;;5.73;2.07;;;;;;;;;;5071085;28;20196;-83
2023/07/31 14:53:12;;;;;;;9.90;2.07;;;;;;;;;;5071302;28;20209;-82
2023/07/31 14:55:40;;;;;;;5.53;1.53;;;;;;;;;;5071438;28;20321;-82
2023/07/31 14:58:11;;;;;;;4.10;1.57;;;;;;;;;;5071798;28;20197;-82